Terminal Aerodrome Forecast
Issued by NWS Omaha/Valley, NE

Home | Current Version | Previous Version | Graphics & Text | Print | Product List | Glossary On
Versions: 1 2 3 4 5 6 7 8 9 10 11 12 13 14 15 16 17 18 19 20 21 22 23
000
FTUS43 KOAX 250813 AAB
TAFOFK
TAF AMD
KOFK 250813Z 2508/2606 01015KT 2SM BR OVC003
      TEMPO 2508/2511 1 1/2SM BR OVC002
     FM251500 01013KT 3SM BR OVC004
     FM251700 01011KT P6SM OVC008
     FM252100 03009KT P6SM BKN015
     FM260400 36013G21KT P6SM OVC007=

USA.gov is the U.S. government's official web portal to all federal, state and local government web resources and services.